createdAt,value
2023-01-18T00:01:13.940Z,13.70
2023-01-18T00:03:42.065Z,11.70
2023-01-18T00:06:10.762Z,12.67
2023-01-18T00:08:39.452Z,13.90
2023-01-18T00:11:16.887Z,13.07
2023-01-18T00:13:43.884Z,12.37
2023-01-18T00:16:13.190Z,13.90
2023-01-18T00:18:39.936Z,12.30
2023-01-18T00:21:11.715Z,13.47
2023-01-18T00:23:38.975Z,12.80
2023-01-18T00:26:08.563Z,12.93
2023-01-18T00:28:35.844Z,11.83
2023-01-18T00:31:02.468Z,13.30
2023-01-18T00:33:29.021Z,12.47
2023-01-18T00:36:00.533Z,13.33
2023-01-18T00:38:28.175Z,13.00
2023-01-18T00:40:55.239Z,14.23
2023-01-18T00:43:40.429Z,13.80
2023-01-18T00:46:15.919Z,13.90
2023-01-18T00:48:44.252Z,14.73
2023-01-18T00:51:13.388Z,13.77
2023-01-18T00:53:41.013Z,13.60
2023-01-18T00:56:09.289Z,14.23
2023-01-18T00:58:37.407Z,13.10
2023-01-18T01:01:05.857Z,12.90
2023-01-18T01:03:52.442Z,12.50
2023-01-18T01:06:43.888Z,13.00
2023-01-18T01:09:11.334Z,12.90
2023-01-18T01:11:37.860Z,13.43
2023-01-18T01:14:22.935Z,13.30
2023-01-18T01:17:08.251Z,15.83
2023-01-18T01:19:53.715Z,14.33
2023-01-18T01:22:39.005Z,13.57
2023-01-18T01:25:24.714Z,13.67
2023-01-18T01:27:51.819Z,14.77
2023-01-18T01:30:18.463Z,13.20
2023-01-18T01:32:45.017Z,13.70
2023-01-18T01:35:11.593Z,13.53
2023-01-18T01:37:38.129Z,14.10
2023-01-18T01:40:05.257Z,12.50
2023-01-18T01:42:31.783Z,12.03
2023-01-18T01:44:58.460Z,12.40
2023-01-18T01:47:32.800Z,11.50
2023-01-18T01:50:15.877Z,12.07
2023-01-18T01:52:44.955Z,11.70
2023-01-18T01:55:32.981Z,11.80
2023-01-18T01:58:07.705Z,13.17
2023-01-18T02:00:35.010Z,12.23
2023-01-18T02:03:05.491Z,12.20
2023-01-18T02:05:35.710Z,11.70
2023-01-18T02:08:04.091Z,12.77
2023-01-18T02:10:30.902Z,13.10
2023-01-18T02:12:59.558Z,12.80
2023-01-18T02:15:36.299Z,13.60
2023-01-18T02:18:24.092Z,13.27
2023-01-18T02:21:15.131Z,12.60
2023-01-18T02:24:19.088Z,12.60
2023-01-18T02:30:59.721Z,13.40
2023-01-18T02:33:47.044Z,13.17
2023-01-18T02:36:31.714Z,12.60
2023-01-18T02:39:06.356Z,12.80
2023-01-18T02:42:02.544Z,12.40
2023-01-18T02:44:58.948Z,13.93
2023-01-18T02:47:27.441Z,12.90
2023-01-18T02:49:55.807Z,13.60
2023-01-18T02:52:47.104Z,12.70
2023-01-18T02:55:28.445Z,11.30
2023-01-18T02:58:00.996Z,13.77
2023-01-18T03:00:29.252Z,12.77
2023-01-18T03:02:58.051Z,13.33
2023-01-18T03:05:26.248Z,13.60
2023-01-18T03:07:58.893Z,12.60
2023-01-18T03:10:31.075Z,12.33
2023-01-18T03:12:57.918Z,12.73
2023-01-18T03:15:36.381Z,13.30
2023-01-18T03:18:16.528Z,13.67
2023-01-18T03:20:51.753Z,13.50
2023-01-18T03:23:38.096Z,14.00
2023-01-18T03:26:06.972Z,14.10
2023-01-18T03:28:59.130Z,13.43
2023-01-18T03:32:06.664Z,13.33
2023-01-18T03:34:44.718Z,14.20
2023-01-18T03:37:19.286Z,14.50
2023-01-18T03:39:54.195Z,13.57
2023-01-18T03:42:26.179Z,13.30
2023-01-18T03:45:02.945Z,13.60
2023-01-18T03:47:30.130Z,14.37
2023-01-18T03:49:57.976Z,13.53
2023-01-18T03:52:28.038Z,12.87
2023-01-18T03:54:57.086Z,12.77
2023-01-18T03:57:35.558Z,13.13
2023-01-18T04:00:05.875Z,12.60
2023-01-18T04:02:32.765Z,12.50
2023-01-18T04:05:03.496Z,12.87
2023-01-18T04:07:31.789Z,11.53
2023-01-18T04:09:59.454Z,13.67
2023-01-18T04:12:26.212Z,12.20
2023-01-18T04:14:53.186Z,12.37
2023-01-18T04:17:20.164Z,11.63
2023-01-18T04:19:46.751Z,11.43
2023-01-18T04:22:13.924Z,11.53
2023-01-18T04:24:40.481Z,12.03
2023-01-18T04:27:07.173Z,11.90
2023-01-18T04:29:34.739Z,12.70
2023-01-18T04:32:01.779Z,11.67
2023-01-18T04:34:28.376Z,12.73
2023-01-18T04:36:55.124Z,12.30
2023-01-18T04:39:21.793Z,12.60
2023-01-18T04:41:48.444Z,12.77
2023-01-18T04:44:16.345Z,12.67
2023-01-18T04:46:43.358Z,12.10
2023-01-18T04:49:15.413Z,12.50
2023-01-18T04:51:43.091Z,12.80
2023-01-18T04:54:10.994Z,11.50
2023-01-18T04:56:37.635Z,13.23
2023-01-18T04:59:04.329Z,13.67
2023-01-18T05:01:31.035Z,12.10
2023-01-18T05:03:57.652Z,12.47
2023-01-18T05:06:24.536Z,12.10
2023-01-18T05:08:51.884Z,12.20
2023-01-18T05:11:20.796Z,12.80
2023-01-18T05:13:47.477Z,13.13
2023-01-18T05:16:20.409Z,13.30
2023-01-18T05:18:47.227Z,13.97
2023-01-18T05:21:14.769Z,13.73
2023-01-18T05:23:42.054Z,13.70
2023-01-18T05:26:15.565Z,14.80
2023-01-18T05:28:42.963Z,14.30
2023-01-18T05:31:10.256Z,14.50
2023-01-18T05:33:37.197Z,14.07
2023-01-18T05:36:04.095Z,14.57
2023-01-18T05:38:30.803Z,14.23
2023-01-18T05:40:57.465Z,14.40
2023-01-18T05:43:25.791Z,14.40
2023-01-18T05:45:52.505Z,15.27
2023-01-18T05:48:20.176Z,13.67
2023-01-18T05:50:48.415Z,15.30
2023-01-18T05:53:17.835Z,15.70
2023-01-18T05:55:52.756Z,15.70
2023-01-18T05:58:19.305Z,16.67
2023-01-18T06:00:45.928Z,16.50
2023-01-18T06:03:12.475Z,18.00
2023-01-18T06:05:39.070Z,16.40
2023-01-18T06:08:05.762Z,17.93
2023-01-18T06:10:32.410Z,17.10
2023-01-18T06:12:59.274Z,17.10
2023-01-18T06:15:26.166Z,16.93
2023-01-18T06:17:52.729Z,18.00
2023-01-18T06:20:19.432Z,15.47
2023-01-18T06:22:46.689Z,17.60
2023-01-18T06:25:13.341Z,16.87
2023-01-18T06:27:40.063Z,16.63
2023-01-18T06:30:07.460Z,16.50
2023-01-18T06:32:34.236Z,15.77
2023-01-18T06:35:00.863Z,16.90
2023-01-18T06:37:27.648Z,15.17
2023-01-18T06:39:54.191Z,15.67
2023-01-18T06:42:20.820Z,15.37
2023-01-18T06:44:47.391Z,16.43
2023-01-18T06:47:18.673Z,15.13
2023-01-18T06:49:48.220Z,14.33
2023-01-18T06:52:15.913Z,14.40
2023-01-18T06:54:42.803Z,15.47
2023-01-18T06:57:09.409Z,15.40
2023-01-18T06:59:35.979Z,16.00
2023-01-18T07:02:02.763Z,15.10
2023-01-18T07:04:29.402Z,15.00
2023-01-18T07:06:55.997Z,16.03
2023-01-18T07:09:22.532Z,16.17
2023-01-18T07:11:49.107Z,16.90
2023-01-18T07:14:15.785Z,16.60
2023-01-18T07:16:42.531Z,17.37
2023-01-18T07:19:09.326Z,17.40
2023-01-18T07:21:36.012Z,17.43
2023-01-18T07:24:02.887Z,19.57
2023-01-18T07:26:29.617Z,17.67
2023-01-18T07:28:56.193Z,19.07
2023-01-18T07:31:24.999Z,20.77
2023-01-18T07:33:52.175Z,19.30
2023-01-18T07:36:19.408Z,19.70
2023-01-18T07:38:47.216Z,21.33
2023-01-18T07:41:15.814Z,20.77
2023-01-18T07:43:44.562Z,20.40
2023-01-18T07:46:14.038Z,21.50
2023-01-18T07:48:40.802Z,20.10
2023-01-18T07:51:09.705Z,20.60
2023-01-18T07:53:38.043Z,20.50
2023-01-18T07:56:08.290Z,19.90
2023-01-18T07:58:38.211Z,21.90
2023-01-18T08:01:17.162Z,20.67
2023-01-18T08:03:45.715Z,21.53
2023-01-18T08:06:16.935Z,20.93
2023-01-18T08:08:44.167Z,20.20
2023-01-18T08:11:11.756Z,20.10
2023-01-18T08:13:38.854Z,20.20
2023-01-18T08:16:08.586Z,21.40
2023-01-18T08:18:35.323Z,20.67
2023-01-18T08:21:01.948Z,20.43
2023-01-18T08:23:29.106Z,21.10
2023-01-18T08:26:00.322Z,20.97
2023-01-18T08:28:27.101Z,21.20
2023-01-18T08:30:53.837Z,22.47
2023-01-18T08:33:20.656Z,22.67
2023-01-18T08:35:48.095Z,19.83
2023-01-18T08:38:16.172Z,20.60
2023-01-18T08:40:43.265Z,20.63
2023-01-18T08:43:11.037Z,20.80
2023-01-18T08:45:37.759Z,24.33
2023-01-18T08:48:07.591Z,25.40
2023-01-18T08:50:35.400Z,21.60
2023-01-18T08:53:02.755Z,20.37
2023-01-18T08:55:29.860Z,20.17
2023-01-18T08:57:57.856Z,19.27
2023-01-18T09:00:28.403Z,21.10
2023-01-18T09:02:55.289Z,21.50
2023-01-18T09:05:22.940Z,20.00
2023-01-18T09:07:50.755Z,20.80
2023-01-18T09:10:17.870Z,19.90
2023-01-18T09:12:44.604Z,19.37
2023-01-18T09:15:11.350Z,21.80
2023-01-18T09:17:38.074Z,20.83
2023-01-18T09:20:09.753Z,20.20
2023-01-18T09:22:37.562Z,20.03
2023-01-18T09:25:05.850Z,19.77
2023-01-18T09:27:33.306Z,21.60
2023-01-18T09:30:00.123Z,21.90
2023-01-18T09:32:27.431Z,20.97
2023-01-18T09:34:54.730Z,22.60
2023-01-18T09:37:21.847Z,22.13
2023-01-18T09:39:52.083Z,22.00
2023-01-18T09:42:22.933Z,20.07
2023-01-18T09:44:52.580Z,20.77
2023-01-18T09:47:24.274Z,24.40
2023-01-18T09:49:57.637Z,21.40
2023-01-18T09:52:47.667Z,23.80
2023-01-18T09:55:20.061Z,23.50
2023-01-18T09:58:24.727Z,22.60
2023-01-18T10:01:02.447Z,23.63
2023-01-18T10:03:39.678Z,22.63
2023-01-18T10:06:15.431Z,22.60
2023-01-18T10:08:53.832Z,23.90
2023-01-18T10:11:34.238Z,22.87
2023-01-18T10:14:15.153Z,23.73
2023-01-18T10:16:41.745Z,23.97
2023-01-18T10:19:25.330Z,23.00
2023-01-18T10:22:06.612Z,22.30
2023-01-18T10:24:55.205Z,22.03
2023-01-18T10:27:48.401Z,21.77
2023-01-18T10:30:28.714Z,22.97
2023-01-18T10:32:58.653Z,22.00
2023-01-18T10:35:34.945Z,23.33
2023-01-18T10:38:08.515Z,21.30
2023-01-18T10:40:37.413Z,21.77
2023-01-18T10:43:10.213Z,21.00
2023-01-18T10:45:36.779Z,20.87
2023-01-18T10:48:18.241Z,21.30
2023-01-18T10:50:53.374Z,20.60
2023-01-18T10:53:37.544Z,20.97
2023-01-18T10:56:18.156Z,20.47
2023-01-18T10:58:50.418Z,20.77
2023-01-18T11:01:23.495Z,19.30
2023-01-18T11:03:55.822Z,18.57
2023-01-18T11:06:24.341Z,17.43
2023-01-18T11:08:51.763Z,16.93
2023-01-18T11:11:49.785Z,16.67
2023-01-18T11:14:25.667Z,15.77
2023-01-18T11:17:10.845Z,15.53
2023-01-18T11:19:38.609Z,14.73
2023-01-18T11:22:12.569Z,15.10
2023-01-18T11:24:39.596Z,14.63
2023-01-18T11:27:16.808Z,12.30
2023-01-18T11:29:45.943Z,14.07
2023-01-18T11:32:27.921Z,13.77
2023-01-18T11:34:57.310Z,13.00
2023-01-18T11:37:43.432Z,13.47
2023-01-18T11:40:19.476Z,13.30
2023-01-18T11:42:48.571Z,12.30
2023-01-18T11:45:18.068Z,12.53
2023-01-18T11:48:02.067Z,12.93
2023-01-18T11:50:48.857Z,12.83
2023-01-18T11:53:43.778Z,12.87
2023-01-18T11:56:19.334Z,12.57
2023-01-18T11:58:46.004Z,11.50
2023-01-18T12:01:50.219Z,11.20
2023-01-18T12:04:43.623Z,11.07
2023-01-18T12:07:32.371Z,11.37
2023-01-18T12:10:01.327Z,11.30
2023-01-18T12:12:45.864Z,10.37
2023-01-18T12:15:24.553Z,9.37
2023-01-18T12:18:22.506Z,9.30
2023-01-18T12:20:49.421Z,9.23
2023-01-18T12:23:43.860Z,10.00
2023-01-18T12:26:28.641Z,9.10
2023-01-18T12:29:21.821Z,8.33
2023-01-18T12:32:20.231Z,9.53
2023-01-18T12:35:25.286Z,9.67
2023-01-18T12:38:13.804Z,8.87
2023-01-18T12:40:43.188Z,9.33
2023-01-18T12:43:33.677Z,8.87
2023-01-18T12:46:11.099Z,8.30
2023-01-18T12:48:56.019Z,9.23
2023-01-18T12:51:26.068Z,10.30
2023-01-18T12:54:13.416Z,10.20
2023-01-18T12:56:44.011Z,9.60
2023-01-18T12:59:34.543Z,9.67
2023-01-18T13:02:32.049Z,9.70
2023-01-18T13:05:34.803Z,8.70
2023-01-18T13:08:09.887Z,9.13
2023-01-18T13:10:37.568Z,8.17
2023-01-18T13:13:06.179Z,8.90
2023-01-18T13:15:32.723Z,9.10
2023-01-18T13:18:26.165Z,10.30
2023-01-18T13:21:06.304Z,9.90
2023-01-18T13:24:19.220Z,9.57
2023-01-18T13:26:45.938Z,9.10
2023-01-18T13:29:19.768Z,9.37
2023-01-18T13:31:46.857Z,8.80
2023-01-18T13:34:31.918Z,9.10
2023-01-18T13:37:14.560Z,8.70
2023-01-18T13:39:47.461Z,10.10
2023-01-18T13:42:14.192Z,9.53
2023-01-18T13:44:47.152Z,9.13
2023-01-18T13:47:35.526Z,9.03
2023-01-18T13:50:02.355Z,9.60
2023-01-18T13:52:35.175Z,8.83
2023-01-18T13:55:22.959Z,9.50
2023-01-18T13:57:55.283Z,9.00
2023-01-18T14:00:24.510Z,8.67
2023-01-18T14:02:56.473Z,8.80
2023-01-18T14:05:30.471Z,9.13
2023-01-18T14:08:00.500Z,8.57
2023-01-18T14:10:34.206Z,8.70
2023-01-18T14:13:06.266Z,9.27
2023-01-18T14:15:41.955Z,8.50
2023-01-18T14:18:27.860Z,8.60
2023-01-18T14:21:27.483Z,8.53
2023-01-18T14:24:00.139Z,8.43
2023-01-18T14:26:30.205Z,11.03
2023-01-18T14:29:00.475Z,9.00
2023-01-18T14:31:32.649Z,9.20
2023-01-18T14:34:30.963Z,9.33
2023-01-18T14:36:58.094Z,10.13
2023-01-18T14:39:24.860Z,11.53
2023-01-18T14:42:03.833Z,8.70
2023-01-18T14:44:58.318Z,8.97
2023-01-18T14:47:30.611Z,9.37
2023-01-18T14:49:58.191Z,9.00
2023-01-18T14:52:30.109Z,9.57
2023-01-18T14:54:56.798Z,9.00
2023-01-18T14:57:24.177Z,9.30
2023-01-18T15:00:14.607Z,9.33
2023-01-18T15:02:44.523Z,9.63
2023-01-18T15:05:17.625Z,10.20
2023-01-18T15:07:47.755Z,8.30
2023-01-18T15:10:18.567Z,8.90
2023-01-18T15:12:50.503Z,8.80
2023-01-18T15:15:28.393Z,7.13
2023-01-18T15:17:59.771Z,8.30
2023-01-18T15:20:26.706Z,7.77
2023-01-18T15:22:53.851Z,7.50
2023-01-18T15:25:26.547Z,8.30
2023-01-18T15:27:53.986Z,7.47
2023-01-18T15:30:23.624Z,7.47
2023-01-18T15:32:56.260Z,6.17
2023-01-18T15:35:26.265Z,6.27
2023-01-18T15:37:53.148Z,5.87
2023-01-18T15:40:19.767Z,5.60
2023-01-18T15:43:17.115Z,6.30
2023-01-18T15:45:51.201Z,5.53
2023-01-18T15:48:23.093Z,6.00
2023-01-18T15:50:55.497Z,6.53
2023-01-18T15:53:28.295Z,7.00
2023-01-18T15:56:06.490Z,6.70
2023-01-18T15:58:43.746Z,6.20
2023-01-18T16:01:13.482Z,6.47
2023-01-18T16:03:53.767Z,6.33
2023-01-18T16:06:20.307Z,5.97
2023-01-18T16:08:56.931Z,6.10
2023-01-18T16:11:35.784Z,5.47
2023-01-18T16:14:07.968Z,6.47
2023-01-18T16:16:39.163Z,6.10
2023-01-18T16:19:31.500Z,6.43
2023-01-18T16:22:01.840Z,7.27
2023-01-18T16:24:31.704Z,6.83
2023-01-18T16:27:06.814Z,7.67
2023-01-18T16:29:48.428Z,7.57
2023-01-18T16:32:30.049Z,7.20
2023-01-18T16:35:03.500Z,7.23
2023-01-18T16:37:30.605Z,7.03
2023-01-18T16:39:57.203Z,8.53
2023-01-18T16:42:36.956Z,7.57
2023-01-18T16:45:05.172Z,7.90
2023-01-18T16:47:31.792Z,7.57
2023-01-18T16:49:59.177Z,8.13
2023-01-18T16:52:26.173Z,7.67
2023-01-18T16:54:52.716Z,7.70
2023-01-18T16:57:21.962Z,7.97
2023-01-18T16:59:52.170Z,8.33
2023-01-18T17:02:19.037Z,7.73
2023-01-18T17:04:46.447Z,7.23
2023-01-18T17:07:13.491Z,8.17
2023-01-18T17:09:48.357Z,6.63
2023-01-18T17:12:15.709Z,6.97
2023-01-18T17:14:42.356Z,7.13
2023-01-18T17:17:10.308Z,6.90
2023-01-18T17:19:37.808Z,7.03
2023-01-18T17:22:06.273Z,7.10
2023-01-18T17:24:32.954Z,6.40
2023-01-18T17:26:59.555Z,6.90
2023-01-18T17:29:26.262Z,6.80
2023-01-18T17:31:53.337Z,6.77
2023-01-18T17:34:27.860Z,6.07
2023-01-18T17:36:56.127Z,5.70
2023-01-18T17:39:24.950Z,7.20
2023-01-18T17:41:58.636Z,6.93
2023-01-18T17:44:36.903Z,6.63
2023-01-18T17:47:03.907Z,6.13
2023-01-18T17:49:30.511Z,5.70
2023-01-18T17:51:57.090Z,5.57
2023-01-18T17:54:23.644Z,6.00
2023-01-18T17:56:50.569Z,6.33
2023-01-18T17:59:17.111Z,5.93
2023-01-18T18:01:43.787Z,5.60
2023-01-18T18:04:10.406Z,6.13
2023-01-18T18:06:43.217Z,6.07
2023-01-18T18:09:12.708Z,5.73
2023-01-18T18:11:40.722Z,5.30
2023-01-18T18:14:07.976Z,6.00
2023-01-18T18:16:42.742Z,4.90
2023-01-18T18:19:13.035Z,5.53
2023-01-18T18:21:39.993Z,5.43
2023-01-18T18:24:06.866Z,5.87
2023-01-18T18:26:33.485Z,6.00
2023-01-18T18:29:00.766Z,5.73
2023-01-18T18:31:27.768Z,5.70
2023-01-18T18:33:54.623Z,5.20
2023-01-18T18:36:22.071Z,5.03
2023-01-18T18:38:48.629Z,6.30
2023-01-18T18:41:15.215Z,5.53
2023-01-18T18:43:41.801Z,4.73
2023-01-18T18:46:08.483Z,5.00
2023-01-18T18:48:35.267Z,5.00
2023-01-18T18:51:01.831Z,5.07
2023-01-18T18:53:37.259Z,5.20
2023-01-18T18:56:10.074Z,4.53
2023-01-18T18:58:37.372Z,4.60
2023-01-18T19:01:05.118Z,4.80
2023-01-18T19:03:32.332Z,4.60
2023-01-18T19:05:59.035Z,4.80
2023-01-18T19:08:25.710Z,5.27
2023-01-18T19:10:52.904Z,4.60
2023-01-18T19:13:21.264Z,4.80
2023-01-18T19:15:51.849Z,4.67
2023-01-18T19:18:19.486Z,4.53
2023-01-18T19:20:51.193Z,5.00
2023-01-18T19:23:18.112Z,4.63
2023-01-18T19:25:47.373Z,4.00
2023-01-18T19:28:15.293Z,4.40
2023-01-18T19:30:43.535Z,5.03
2023-01-18T19:33:58.600Z,5.20
2023-01-18T19:36:25.530Z,5.53
2023-01-18T19:38:59.371Z,5.10
2023-01-18T19:41:27.738Z,5.20
2023-01-18T19:43:54.952Z,5.77
2023-01-18T19:46:22.253Z,5.83
2023-01-18T19:48:54.815Z,5.10
2023-01-18T19:51:22.857Z,6.50
2023-01-18T19:53:54.479Z,6.63
2023-01-18T19:56:22.301Z,6.70
2023-01-18T19:58:50.348Z,6.80
2023-01-18T20:01:34.636Z,6.80
2023-01-18T20:04:02.356Z,6.43
2023-01-18T20:06:28.944Z,6.80
2023-01-18T20:08:55.584Z,6.90
2023-01-18T20:11:22.291Z,7.07
2023-01-18T20:13:50.509Z,7.07
2023-01-18T20:16:20.264Z,7.13
2023-01-18T20:18:48.737Z,7.77
2023-01-18T20:21:17.256Z,6.43
2023-01-18T20:23:44.837Z,7.47
2023-01-18T20:26:12.944Z,7.03
2023-01-18T20:28:41.009Z,5.97
2023-01-18T20:31:09.288Z,6.93
2023-01-18T20:33:38.177Z,6.83
2023-01-18T20:36:08.201Z,7.77
2023-01-18T20:38:35.206Z,7.00
2023-01-18T20:41:02.339Z,7.20
2023-01-18T20:43:29.098Z,7.53
2023-01-18T20:46:07.777Z,6.90
2023-01-18T20:48:35.130Z,7.20
2023-01-18T20:51:02.867Z,7.80
2023-01-18T20:53:31.446Z,6.90
2023-01-18T20:56:03.491Z,6.90
2023-01-18T20:58:30.349Z,7.03
2023-01-18T21:00:57.165Z,7.23
2023-01-18T21:03:23.813Z,7.47
2023-01-18T21:05:50.365Z,6.37
2023-01-18T21:08:17.698Z,7.87
2023-01-18T21:10:44.340Z,7.87
2023-01-18T21:13:11.456Z,7.57
2023-01-18T21:15:39.079Z,6.20
2023-01-18T21:18:06.350Z,7.30
2023-01-18T21:20:34.297Z,6.87
2023-01-18T21:23:01.580Z,7.57
2023-01-18T21:25:29.031Z,7.70
2023-01-18T21:27:57.913Z,8.27
2023-01-18T21:30:24.980Z,7.47
2023-01-18T21:32:51.569Z,7.97
2023-01-18T21:35:18.881Z,8.10
2023-01-18T21:37:45.466Z,7.87
2023-01-18T21:40:26.559Z,7.50
2023-01-18T21:43:12.123Z,8.60
2023-01-18T21:45:55.002Z,6.90
2023-01-18T21:48:26.085Z,6.50
2023-01-18T21:51:12.103Z,7.10
2023-01-18T21:54:00.463Z,7.80
2023-01-18T21:56:27.209Z,7.57
2023-01-18T21:58:54.407Z,7.20
2023-01-18T22:01:37.721Z,7.37
2023-01-18T22:04:25.923Z,7.73
2023-01-18T22:06:53.925Z,7.90
2023-01-18T22:09:20.999Z,7.30
2023-01-18T22:11:47.769Z,8.03
2023-01-18T22:14:14.488Z,8.03
2023-01-18T22:16:41.236Z,8.87
2023-01-18T22:19:09.729Z,7.17
2023-01-18T22:21:36.285Z,9.07
2023-01-18T22:24:03.469Z,7.20
2023-01-18T22:26:30.925Z,9.10
2023-01-18T22:28:57.622Z,8.37
2023-01-18T22:31:24.929Z,8.77
2023-01-18T22:33:51.777Z,7.17
2023-01-18T22:36:18.503Z,8.10
2023-01-18T22:38:45.594Z,8.17
2023-01-18T22:41:17.759Z,9.40
2023-01-18T22:43:44.890Z,8.27
2023-01-18T22:46:19.225Z,9.10
2023-01-18T22:48:46.829Z,7.53
2023-01-18T22:51:16.568Z,8.50
2023-01-18T22:53:44.470Z,7.87
2023-01-18T22:56:17.778Z,8.20
2023-01-18T22:58:44.777Z,8.07
2023-01-18T23:01:26.531Z,9.43
2023-01-18T23:03:56.322Z,8.50
2023-01-18T23:06:22.926Z,8.80
2023-01-18T23:08:50.197Z,9.07
2023-01-18T23:11:21.788Z,10.30
2023-01-18T23:14:09.988Z,10.10
2023-01-18T23:16:56.050Z,8.80
2023-01-18T23:19:24.302Z,8.70
2023-01-18T23:21:51.539Z,7.80
2023-01-18T23:24:18.395Z,9.20
2023-01-18T23:26:45.171Z,8.40
2023-01-18T23:29:12.194Z,8.50
2023-01-18T23:31:39.079Z,9.17
2023-01-18T23:34:05.702Z,8.33
2023-01-18T23:36:32.362Z,9.50
2023-01-18T23:39:17.430Z,9.00
2023-01-18T23:42:02.942Z,8.50
2023-01-18T23:44:48.394Z,8.30
2023-01-18T23:47:33.827Z,9.07
2023-01-18T23:50:19.098Z,9.90
2023-01-18T23:53:06.029Z,9.10
2023-01-18T23:55:32.836Z,10.53
2023-01-18T23:57:59.798Z,9.20
